Terminal Aerodrome Forecast
Issued by NWS

Home | Current Version | Previous Version | Text Only | Print | Product List | Glossary On
Versions: 1 2 3 4 5 6 7 8 9 10 11 12 13
258
FTUS43 KMQT 162332
TAFSAW
TAF
KSAW 162332Z 1700/1724 20006KT P6SM SCT150
     FM170300 21008KT P6SM FEW130 WS010/24040KT
     FM171000 23007KT P6SM FEW200
     FM172100 19008KT P6SM FEW200=

USA.gov is the U.S. government's official web portal to all federal, state and local government web resources and services.